Airfield :
LOGIN :

Register | Disclaimer

   EN    FR    IT 

 










Legend :    VFR   Marginal VFR   IFR   Intensive IFR   Very Intensive IFR
Visi :
Ceiling :
>= 8 km
>= 3000ft
5 to 8 km
1000 to 3000 ft
1500m to 5 km
500 to 1000 ft
800 to 1500m
200 to 500 ft
< 800m
< 200 ft
Symbols :   Thunderstorms  Fog  Heavy snow  Heavy precipitations  Wind > 20 kt
SIGMETs :     Misc.  Thunderstorms  Icing  Turbulence  Mountain Waves  Volcanic Ashes







- Airport Elevation : 274 ft
- IATA code : PUY


LDPL - Pula

CURRENT METAR :
  • 230800Z 06013KT 020V080 CAVOK 16/05 Q1022 NOSIG

EXPIRED METARs :
  • 230730Z 07016KT CAVOK 16/05 Q1022 NOSIG
  • 230700Z 08012KT CAVOK 15/06 Q1022 NOSIG
  • 230630Z 05008KT CAVOK 14/05 Q1022 NOSIG
  • 230600Z 06009KT CAVOK 13/05 Q1022 NOSIG
  • 230530Z 06008KT CAVOK 14/04 Q1022 NOSIG
  • 230500Z 06011KT CAVOK 14/05 Q1022 NOSIG

TAF TAF LDPL
Valid from the 23 at 06:00 until the 24 at 06:00 UTC


230525Z 2306/2406 06008KT CAVOK TX19/2313Z TN13/2404Z
BECMG 2314/2316 29008KT
BECMG 2318/2320 VRB02KT
No reported NOTAMs for that airfield.
2 SIGMETs reported for the Zagreb FIR (LDZO) :
 
Severe turbulence
LDZO SIGMET 2 VALID 230800/231000 LDZA
LDZO ZAGREB FIR SEV TURB FCST WI N4411 E01616 - N4347 E01544 - N4426 E01446 - N4519 E01406 - N4525 E01443 - N4411 E01616 SFC/6000FT STNR WKN=
Severe turbulence
LDZO SIGMET 1 VALID 230400/230800 LDZA
LDZO ZAGREB FIR SEV TURB FCST WI N4459 E01543 - N4348 E01643 - N4318 E01553 - N4517 E01258 - N4533 E01322 - N4542 E01435 - N4459 E01543 SFC/6000FT STNR NC=



MET'MAP, your aeronautical weather chart ! - Copyright ORBIFLY December 2007 - Disclaimer

ORBIFLY MET'MAP TEAM :

Programming & Development : Alexandra Zaïnal
Concept & Development : Baudouin d'Aumeries
Co-Development & Prog : Marc-Olivier Méhu
Technical & hardware support : Manuel Goepfert

Contact : metmap@orbifly.com




SOURCES & CREDITS :

   NOAA